EW9772 Weather Reports


Display with metric or nautical units.
time (UTC)temp
F
wind
direction
speed
MPH
gust
MPH
rain 1hr
in
rain 24hr
in
rain mn
in
humidity
%
barometer
mb
20190826023140 82 31 0.0 1.0 0.00 0.33 0.33 84 1013.3
20190826021631 83 38 0.0 2.0 0.00 0.33 0.33 83 1013.6
20190826020209 83 39 0.0 2.0 0.00 0.33 0.33 83 1013.3
20190826014631 83 40 0.0 2.0 0.00 0.33 0.33 83 1013.3
20190826013139 83 40 1.0 3.0 0.00 0.33 0.33 84 1013.2
20190826011637 83 40 1.0 4.0 0.00 0.33 0.33 84 1013.1
20190826010221 83 40 2.0 3.0 0.00 0.33 0.33 84 1012.9
20190826004651 83 40 2.0 3.0 0.00 0.33 0.33 84 1012.9
20190826003111 83 40 1.0 3.0 0.00 0.33 0.33 83 1012.8
20190826001624 83 40 1.0 3.0 0.00 0.33 0.33 83 1012.5
20190826000142 84 41 1.0 4.0 0.00 0.33 0.33 82 1012.5
20190825234626 84 42 1.0 3.0 0.00 0.33 0.33 82 1012.4
20190825233139 84 42 0.0 5.0 0.00 0.33 0.33 81 1012.2
20190825231718 84 42 0.0 2.0 0.00 0.33 0.33 81 1012.2
20190825230121 84 42 1.0 4.0 0.00 0.33 0.33 81 1012.1
20190825224608 84 42 1.0 3.0 0.00 0.33 0.33 81 1012.3
20190825223143 84 42 2.0 3.0 0.00 0.33 0.33 81 1012.4
20190825221629 84 42 2.0 3.0 0.00 0.33 0.33 82 1012.4
20190825220209 84 42 0.0 4.0 0.00 0.33 0.33 82 1012.4
20190825214614 84 42 2.0 4.0 0.00 0.33 0.33 83 1012.4
20190825213145 83 42 2.0 5.0 0.00 0.33 0.33 83 1012.3
20190825211630 83 50 3.0 6.0 0.00 0.33 0.33 84 1012.2
20190825210206 83 26 4.0 7.0 0.00 0.33 0.33 87 1012.1
20190825204604 83 48 3.0 6.0 0.00 0.33 0.33 89 1012.0
20190825203152 82 56 2.0 4.0 0.00 0.33 0.33 90 1012.1
20190825201651 82 53 0.0 3.0 0.00 0.33 0.33 90 1012.4
20190825200157 82 51 0.0 2.0 0.00 0.33 0.33 90 1012.7
20190825194653 82 40 0.0 2.0 0.00 0.33 0.33 90 1012.6
20190825193200 82 42 0.0 3.0 0.00 0.33 0.33 90 1012.9
20190825191705 82 195 1.0 2.0 0.00 0.33 0.33 91 1012.9
20190825190139 82 184 2.0 5.0 0.00 0.33 0.33 91 1013.3
20190825184617 82 26 2.0 5.0 0.07 0.33 0.33 92 1013.0
20190825183200 82 29 0.0 6.0 0.19 0.33 0.33 92 1013.0
20190825181615 81 17 2.0 8.0 0.33 0.33 0.33 92 1013.0
20190825180059 82 32 3.0 8.0 0.33 0.33 0.33 92 1013.3
20190825174737 82 31 4.0 7.0 0.26 0.26 0.26 90 1013.4
20190825173127 84 8 5.0 10.0 0.14 0.14 0.14 88 1013.6
20190825171616 85 36 7.0 11.0 0.00 0.00 0.00 85 1013.4
20190825170125 86 33 6.0 11.0 0.00 0.00 0.00 86 1013.2
20190825164610 84 16 7.0 10.0 0.00 0.00 0.00 87 1013.4
20190825163119 85 29 7.0 10.0 0.00 0.00 0.00 85 1013.3
20190825161624 87 15 6.0 9.0 0.00 0.00 0.00 79 1013.4
20190825160147 89 190 2.0 5.0 0.00 0.00 0.00 72 1013.3
20190825154537 89 270 0.0 4.0 0.00 0.00 0.00 75 1013.4
20190825153123 88 233 2.0 4.0 0.00 0.00 0.00 77 1013.6
20190825151636 87 223 2.0 5.0 0.00 0.00 0.00 77 1013.7
20190825150029 86 284 1.0 5.0 0.00 0.00 0.00 81 1013.6
20190825144532 85 116 2.0 5.0 0.00 0.00 0.00 83 1013.5
20190825143023 85 169 1.0 5.0 0.00 0.00 0.00 85 1013.5
20190825141537 84 203 2.0 6.0 0.00 0.00 0.00 88 1013.4
20190825140039 83 154 1.0 3.0 0.00 0.00 0.00 91 1013.5
20190825134510 83 139 2.0 4.0 0.00 0.00 0.00 91 1013.4
20190825133018 82 241 0.0 3.0 0.00 0.00 0.00 92 1013.5
20190825131507 82 349 1.0 2.0 0.00 0.00 0.00 93 1013.4
20190825130002 81 159 1.0 3.0 0.00 0.00 0.00 93 1013.4
20190825124738 81 159 1.0 3.0 0.00 0.00 0.00 94 1013.1
20190825123201 80 174 1.0 3.0 0.00 0.00 0.00 94 1012.9
20190825121702 80 189 1.0 3.0 0.00 0.00 0.00 95 1012.8
20190825120200 80 210 1.0 2.0 0.00 0.00 0.00 95 1012.8
20190825114650 80 210 1.0 2.0 0.00 0.00 0.00 95 1012.7
20190825113241 79 210 1.0 3.0 0.00 0.00 0.00 95 1012.5
20190825111633 79 210 0.0 2.0 0.00 0.00 0.00 95 1012.3
20190825110203 79 210 1.0 2.0 0.00 0.00 0.00 94 1012.1
20190825104633 79 210 1.0 3.0 0.00 0.01 0.00 94 1011.8
20190825103207 79 210 0.0 2.0 0.00 0.01 0.00 94 1011.9
20190825101726 79 210 0.0 2.0 0.00 0.01 0.00 94 1011.7
20190825100227 79 210 0.0 2.0 0.00 0.01 0.00 94 1011.7
20190825094635 79 210 0.0 1.0 0.00 0.06 0.00 93 1011.7
20190825093323 79 210 1.0 2.0 0.00 0.06 0.00 93 1011.5
20190825091659 79 210 0.0 2.0 0.00 0.06 0.00 93 1011.5
20190825090208 79 210 1.0 2.0 0.00 0.06 0.00 93 1011.5
20190825084639 79 210 1.0 2.0 0.00 0.11 0.00 93 1011.5
20190825083056 79 210 1.0 3.0 0.00 0.11 0.00 92 1011.7
20190825081602 79 153 1.0 2.0 0.00 0.11 0.00 92 1011.7
20190825080150 79 153 0.0 2.0 0.00 0.11 0.00 92 1011.6
20190825074607 80 153 0.0 2.0 0.00 0.11 0.00 92 1011.7
20190825073203 80 153 0.0 2.0 0.00 0.11 0.00 92 1011.8
20190825071613 80 152 0.0 2.0 0.00 0.11 0.00 91 1011.8
20190825070111 80 152 0.0 1.0 0.00 0.11 0.00 91 1011.7
20190825064608 80 152 0.0 0.0 0.00 0.18 0.00 91 1011.8
20190825063057 80 152 0.0 1.0 0.00 0.18 0.00 90 1012.0
20190825061605 80 152 0.0 2.0 0.00 0.18 0.00 90 1011.8
20190825060100 80 152 0.0 2.0 0.00 0.18 0.00 90 1012.1
20190825054541 81 152 0.0 1.0 0.00 0.20 0.00 90 1012.3
20190825053043 81 152 0.0 1.0 0.00 0.20 0.00 90 1012.5
20190825051532 81 151 0.0 1.0 0.00 0.20 0.00 90 1012.6
20190825050151 81 143 0.0 2.0 0.00 0.20 0.00 89 1012.7
20190825044533 81 131 0.0 1.0 0.00 0.24 0.00 89 1012.7
20190825043059 81 132 0.0 2.0 0.00 0.24 0.00 89 1012.8
20190825041536 81 134 0.0 2.0 0.00 0.24 0.00 88 1013.0
20190825040046 81 144 1.0 2.0 0.00 0.24 0.00 88 1013.0
20190825034530 82 146 1.0 2.0 0.00 0.24 0.24 88 1013.2
20190825033052 82 145 0.0 2.0 0.00 0.24 0.24 87 1013.2
20190825031519 82 146 0.0 2.0 0.00 0.24 0.24 87 1013.2
20190825030028 82 145 0.0 2.0 0.00 0.24 0.24 87 1013.2
20190825024526 82 144 0.0 3.0 0.00 0.24 0.24 87 1013.2